createdAt,value
2023-01-23T00:01:36.658Z,3.00
2023-01-23T00:04:05.142Z,1.40
2023-01-23T00:11:30.591Z,2.00
2023-01-23T00:14:00.045Z,2.50
2023-01-23T00:16:31.631Z,2.20
2023-01-23T00:21:29.244Z,2.30
2023-01-23T00:23:58.904Z,1.70
2023-01-23T00:26:29.848Z,2.00
2023-01-23T00:31:30.522Z,2.10
2023-01-23T00:36:38.269Z,2.10
2023-01-23T00:39:15.877Z,2.90
2023-01-23T00:41:46.734Z,2.70
2023-01-23T01:09:00.675Z,2.50
2023-01-23T01:36:21.124Z,2.00
2023-01-23T01:41:18.119Z,1.50
2023-01-23T01:48:58.768Z,2.10
2023-01-23T01:56:55.025Z,2.40
2023-01-23T01:59:25.533Z,2.50
2023-01-23T02:02:05.157Z,3.10
2023-01-23T02:07:15.736Z,2.90
2023-01-23T02:17:10.678Z,3.20
2023-01-23T02:20:20.654Z,2.40
2023-01-23T02:23:16.444Z,2.00
2023-01-23T02:28:16.657Z,3.30
2023-01-23T02:30:50.965Z,1.90
2023-01-23T02:38:31.299Z,2.70
2023-01-23T02:41:02.688Z,1.20
2023-01-23T02:43:38.807Z,1.20
2023-01-23T02:46:11.969Z,0.90
2023-01-23T03:11:18.479Z,2.10
2023-01-23T03:13:48.028Z,1.80
2023-01-23T03:36:37.297Z,2.50
2023-01-23T03:39:39.550Z,2.00
2023-01-23T05:15:09.091Z,2.00
2023-01-23T05:35:17.781Z,2.50
2023-01-23T05:37:52.746Z,3.30
2023-01-23T05:51:23.275Z,2.40
2023-01-23T06:40:22.835Z,2.00
2023-01-23T07:50:15.034Z,2.90
2023-01-23T09:44:20.536Z,2.60
2023-01-23T09:47:04.797Z,2.50
2023-01-23T09:50:15.465Z,4.50
2023-01-23T09:53:00.315Z,3.20
2023-01-23T09:56:07.151Z,4.30
2023-01-23T10:06:23.322Z,3.00
2023-01-23T10:09:43.611Z,3.50
2023-01-23T10:15:27.325Z,3.60
2023-01-23T10:18:10.001Z,3.00
2023-01-23T10:23:52.051Z,4.30
2023-01-23T10:26:26.483Z,5.00
2023-01-23T10:29:29.008Z,3.10
2023-01-23T10:32:01.344Z,3.80
2023-01-23T10:37:39.931Z,2.70
2023-01-23T10:43:20.626Z,3.80
2023-01-23T10:45:50.156Z,3.60
2023-01-23T10:48:40.603Z,3.10
2023-01-23T10:51:28.505Z,3.80
2023-01-23T10:54:36.633Z,3.80
2023-01-23T10:57:25.750Z,3.20
2023-01-23T11:00:08.235Z,3.60
2023-01-23T11:05:50.589Z,3.60
2023-01-23T11:13:30.379Z,3.00
2023-01-23T11:18:39.095Z,3.60
2023-01-23T11:28:47.837Z,4.80
2023-01-23T11:34:09.615Z,4.20
2023-01-23T11:37:11.196Z,4.00
2023-01-23T11:53:22.478Z,3.50
2023-01-23T11:56:21.530Z,4.00
2023-01-23T12:02:16.592Z,4.20
2023-01-23T12:07:25.346Z,4.50
2023-01-23T12:10:23.885Z,4.70
2023-01-23T12:16:26.132Z,3.90
2023-01-23T12:22:16.103Z,4.60
2023-01-23T12:31:06.911Z,4.80
2023-01-23T12:36:22.104Z,4.00
2023-01-23T12:47:26.056Z,4.30
2023-01-23T12:53:00.597Z,4.30
2023-01-23T12:55:39.603Z,4.20
2023-01-23T12:58:13.061Z,4.20
2023-01-23T13:01:09.312Z,4.80
2023-01-23T13:04:40.380Z,4.70
2023-01-23T13:15:40.442Z,4.10
2023-01-23T13:21:18.293Z,3.70
2023-01-23T13:26:17.080Z,4.50
2023-01-23T13:28:49.172Z,4.40
2023-01-23T13:31:46.484Z,4.20
2023-01-23T13:36:47.766Z,4.50
2023-01-23T13:41:53.031Z,3.70
2023-01-23T13:44:41.612Z,2.70
2023-01-23T14:21:52.200Z,4.20
2023-01-23T14:27:02.465Z,3.20
2023-01-23T14:37:08.765Z,3.60
2023-01-23T14:42:09.560Z,2.70
2023-01-23T14:52:29.456Z,4.00
2023-01-23T14:58:00.768Z,4.90
2023-01-23T15:05:29.116Z,3.60
2023-01-23T15:08:07.240Z,3.70
2023-01-23T15:13:50.324Z,4.30
2023-01-23T15:16:31.561Z,3.60
2023-01-23T15:19:07.474Z,3.90
2023-01-23T15:21:40.816Z,3.20
2023-01-23T15:26:50.374Z,3.30
2023-01-23T15:29:20.860Z,3.50
2023-01-23T15:31:51.259Z,3.50
2023-01-23T15:34:24.694Z,3.60
2023-01-23T15:37:12.491Z,3.00
2023-01-23T15:39:54.493Z,3.40
2023-01-23T15:42:28.815Z,3.20
2023-01-23T15:47:30.867Z,3.00
2023-01-23T15:55:16.080Z,2.40
2023-01-23T16:00:25.768Z,3.60
2023-01-23T16:05:29.067Z,2.80
2023-01-23T16:08:00.985Z,1.50
2023-01-23T16:10:34.428Z,1.50
2023-01-23T16:15:33.094Z,3.10
2023-01-23T16:18:03.150Z,3.40
2023-01-23T16:20:35.793Z,2.90
2023-01-23T16:23:15.759Z,3.00
2023-01-23T16:28:17.796Z,2.30
2023-01-23T16:30:47.780Z,3.10
2023-01-23T16:33:16.470Z,2.60
2023-01-23T16:38:26.413Z,3.30
2023-01-23T16:40:56.655Z,1.80
2023-01-23T16:48:28.084Z,2.30
2023-01-23T16:51:17.889Z,3.60
2023-01-23T16:53:55.131Z,3.70
2023-01-23T16:56:38.999Z,2.90
2023-01-23T16:59:14.121Z,2.20
2023-01-23T17:01:46.001Z,3.40
2023-01-23T17:04:18.084Z,2.40
2023-01-23T17:11:48.881Z,2.60
2023-01-23T17:19:32.748Z,1.90
2023-01-23T17:22:03.242Z,2.30
2023-01-23T17:34:25.871Z,3.10
2023-01-23T17:49:30.272Z,3.60
2023-01-23T17:52:01.031Z,4.00
2023-01-23T18:04:22.548Z,2.90
2023-01-23T18:06:50.916Z,3.20
2023-01-23T18:17:31.803Z,1.30
2023-01-23T18:27:25.760Z,2.00
2023-01-23T18:33:05.483Z,1.20
2023-01-23T18:39:04.273Z,1.30
2023-01-23T18:52:11.176Z,2.70
2023-01-23T18:55:11.086Z,2.90
2023-01-23T18:58:01.258Z,2.50
2023-01-23T19:00:47.693Z,2.50
2023-01-23T19:03:17.852Z,2.20
2023-01-23T19:08:28.231Z,1.80
2023-01-23T19:11:06.412Z,1.80
2023-01-23T19:13:58.402Z,1.50
2023-01-23T19:16:32.722Z,2.70
2023-01-23T19:24:19.547Z,2.20
2023-01-23T20:01:52.036Z,3.30
2023-01-23T20:04:21.649Z,2.40
2023-01-23T20:19:15.123Z,2.00
2023-01-23T20:59:15.157Z,2.70
2023-01-23T21:02:03.299Z,2.50
2023-01-23T21:04:34.367Z,2.50
2023-01-23T21:07:03.661Z,3.30
2023-01-23T21:34:14.223Z,3.10
2023-01-23T21:39:14.302Z,1.90
2023-01-23T21:44:11.548Z,2.40
2023-01-23T22:04:14.231Z,1.90
2023-01-23T22:06:44.391Z,2.60
2023-01-23T22:09:18.410Z,2.00
2023-01-23T22:11:47.862Z,2.00
2023-01-23T22:14:17.909Z,2.40
2023-01-23T22:19:24.252Z,3.00
2023-01-23T22:41:49.989Z,3.00
2023-01-23T23:11:28.696Z,2.20
2023-01-23T23:16:30.735Z,2.30
2023-01-23T23:19:01.408Z,2.30
2023-01-23T23:21:33.665Z,2.50
2023-01-23T23:29:00.704Z,2.80
2023-01-23T23:51:18.685Z,2.40
2023-01-23T23:56:27.663Z,1.30
2023-01-23T23:58:56.197Z,3.20
